createdAt,value
2023-04-15T00:00:58.351Z,7.10
2023-04-15T00:03:26.763Z,5.90
2023-04-15T00:05:54.982Z,6.23
2023-04-15T00:08:23.054Z,8.50
2023-04-15T00:10:52.330Z,6.77
2023-04-15T00:13:20.286Z,9.77
2023-04-15T00:15:48.635Z,7.43
2023-04-15T00:18:16.514Z,6.23
2023-04-15T00:20:44.411Z,6.43
2023-04-15T00:23:12.218Z,7.20
2023-04-15T00:25:40.132Z,7.73
2023-04-15T00:28:09.891Z,6.90
2023-04-15T00:30:38.061Z,6.07
2023-04-15T00:33:06.789Z,6.60
2023-04-15T00:35:34.781Z,6.30
2023-04-15T00:38:02.668Z,5.87
2023-04-15T00:40:30.710Z,6.87
2023-04-15T00:42:58.702Z,5.13
2023-04-15T00:45:28.722Z,4.40
2023-04-15T00:47:57.209Z,6.63
2023-04-15T00:50:25.167Z,6.70
2023-04-15T00:52:53.062Z,6.63
2023-04-15T00:55:20.916Z,5.00
2023-04-15T00:57:49.515Z,6.30
2023-04-15T01:00:18.090Z,5.77
2023-04-15T01:02:48.778Z,5.63
2023-04-15T01:05:18.690Z,5.70
2023-04-15T01:07:46.819Z,4.77
2023-04-15T01:10:14.669Z,8.73
2023-04-15T01:12:44.667Z,7.73
2023-04-15T01:15:12.728Z,7.70
2023-04-15T01:17:40.836Z,6.27
2023-04-15T01:20:12.149Z,7.33
2023-04-15T01:22:40.734Z,6.07
2023-04-15T01:25:13.141Z,6.23
2023-04-15T01:27:43.312Z,9.77
2023-04-15T01:30:12.163Z,5.97
2023-04-15T01:32:40.175Z,7.73
2023-04-15T01:35:08.771Z,7.50
2023-04-15T01:37:37.853Z,8.33
2023-04-15T01:40:06.911Z,6.77
2023-04-15T01:42:36.860Z,9.20
2023-04-15T01:45:07.297Z,5.67
2023-04-15T01:47:35.701Z,5.87
2023-04-15T01:50:03.752Z,7.90
2023-04-15T01:52:32.190Z,7.63
2023-04-15T01:55:00.065Z,5.57
2023-04-15T01:57:28.205Z,7.37
2023-04-15T01:59:56.690Z,4.67
2023-04-15T02:02:26.383Z,5.57
2023-04-15T02:04:57.255Z,7.00
2023-04-15T02:07:25.512Z,6.93
2023-04-15T02:09:55.738Z,5.57
2023-04-15T02:12:23.614Z,6.23
2023-04-15T02:14:51.565Z,5.53
2023-04-15T02:17:19.592Z,7.73
2023-04-15T02:19:49.512Z,7.93
2023-04-15T02:22:18.913Z,6.23
2023-04-15T02:24:47.809Z,6.57
2023-04-15T02:27:19.268Z,5.47
2023-04-15T02:29:47.500Z,7.03
2023-04-15T02:32:15.417Z,3.90
2023-04-15T02:34:43.673Z,4.67
2023-04-15T02:37:14.254Z,7.77
2023-04-15T02:39:42.305Z,6.70
2023-04-15T02:42:13.220Z,9.03
2023-04-15T02:44:41.148Z,7.97
2023-04-15T02:47:09.180Z,6.60
2023-04-15T02:49:37.110Z,7.07
2023-04-15T02:52:04.958Z,6.17
2023-04-15T02:54:34.333Z,5.87
2023-04-15T02:57:02.804Z,5.07
2023-04-15T02:59:30.843Z,6.90
2023-04-15T03:02:00.977Z,6.43
2023-04-15T03:04:32.098Z,7.33
2023-04-15T03:07:00.971Z,6.47
2023-04-15T03:09:28.988Z,5.43
2023-04-15T03:11:58.334Z,7.70
2023-04-15T03:14:27.101Z,5.73
2023-04-15T03:16:56.118Z,6.40
2023-04-15T03:19:25.023Z,4.40
2023-04-15T03:21:53.144Z,5.97
2023-04-15T03:24:21.654Z,7.87
2023-04-15T03:26:49.507Z,7.50
2023-04-15T03:29:21.273Z,4.33
2023-04-15T03:31:49.708Z,5.33
2023-04-15T03:34:18.149Z,7.20
2023-04-15T03:36:47.468Z,8.33
2023-04-15T03:39:15.392Z,6.97
2023-04-15T03:41:43.220Z,3.73
2023-04-15T03:44:11.176Z,5.00
2023-04-15T03:46:40.439Z,5.30
2023-04-15T03:49:08.987Z,5.40
2023-04-15T03:51:36.912Z,5.07
2023-04-15T03:54:04.950Z,4.73
2023-04-15T03:56:32.836Z,4.53
2023-04-15T03:59:01.455Z,5.03
2023-04-15T04:01:29.592Z,7.00
2023-04-15T04:03:58.898Z,6.27
2023-04-15T04:06:27.424Z,5.83
2023-04-15T04:08:55.903Z,4.93
2023-04-15T04:11:23.674Z,4.63
2023-04-15T04:13:51.596Z,7.80
2023-04-15T04:16:19.584Z,17.70
2023-04-15T04:18:47.752Z,8.20
2023-04-15T04:21:17.204Z,5.37
2023-04-15T04:23:45.492Z,6.37
2023-04-15T04:26:13.452Z,6.53
2023-04-15T04:28:41.600Z,6.23
2023-04-15T04:31:09.487Z,9.13
2023-04-15T04:33:37.344Z,6.37
2023-04-15T04:36:05.973Z,8.43
2023-04-15T04:38:35.316Z,8.83
2023-04-15T04:41:03.317Z,7.47
2023-04-15T04:43:31.943Z,8.13
2023-04-15T04:45:59.815Z,5.43
2023-04-15T04:48:27.612Z,6.27
2023-04-15T04:50:55.733Z,8.30
2023-04-15T04:53:23.562Z,6.37
2023-04-15T04:55:53.134Z,8.17
2023-04-15T04:58:21.421Z,6.50
2023-04-15T05:00:49.422Z,6.30
2023-04-15T05:03:17.603Z,7.13
2023-04-15T05:05:45.869Z,7.40
2023-04-15T05:08:13.751Z,5.77
2023-04-15T05:10:41.812Z,6.77
2023-04-15T05:13:11.095Z,6.93
2023-04-15T05:15:41.213Z,6.23
2023-04-15T05:18:09.138Z,9.30
2023-04-15T05:20:37.060Z,8.43
2023-04-15T05:23:04.924Z,6.80
2023-04-15T05:25:32.750Z,8.70
2023-04-15T05:28:00.601Z,10.90
2023-04-15T05:30:30.656Z,8.13
2023-04-15T05:32:58.724Z,5.83
2023-04-15T05:35:27.427Z,7.33
2023-04-15T05:37:55.442Z,6.70
2023-04-15T05:40:23.456Z,6.87
2023-04-15T05:42:51.332Z,7.60
2023-04-15T05:45:19.350Z,9.03
2023-04-15T05:47:50.434Z,7.40
2023-04-15T05:50:18.599Z,6.17
2023-04-15T05:52:46.923Z,8.50
2023-04-15T05:55:15.562Z,8.27
2023-04-15T05:57:43.573Z,7.40
2023-04-15T06:00:13.193Z,5.00
2023-04-15T06:02:41.784Z,7.93
2023-04-15T06:05:11.897Z,12.37
2023-04-15T06:07:40.122Z,5.10
2023-04-15T06:10:09.263Z,8.83
2023-04-15T06:12:37.404Z,7.17
2023-04-15T06:15:06.725Z,8.63
2023-04-15T06:17:34.921Z,8.80
2023-04-15T06:20:03.790Z,10.73
2023-04-15T06:22:33.208Z,8.17
2023-04-15T06:25:01.256Z,8.27
2023-04-15T06:27:29.263Z,7.63
2023-04-15T06:29:57.171Z,11.40
2023-04-15T06:32:25.330Z,9.07
2023-04-15T06:34:53.425Z,11.20
2023-04-15T06:37:21.467Z,7.43
2023-04-15T06:39:51.081Z,5.97
2023-04-15T06:42:19.464Z,8.00
2023-04-15T06:44:47.996Z,5.90
2023-04-15T06:47:16.098Z,9.23
2023-04-15T06:49:44.975Z,6.33
2023-04-15T06:52:16.784Z,5.93
2023-04-15T06:54:45.200Z,10.20
2023-04-15T06:57:14.721Z,7.30
2023-04-15T06:59:43.685Z,8.80
2023-04-15T07:02:15.272Z,8.13
2023-04-15T07:04:43.216Z,7.13
2023-04-15T07:07:11.248Z,5.00
2023-04-15T07:09:39.566Z,5.37
2023-04-15T07:12:07.713Z,4.97
2023-04-15T07:14:38.370Z,5.20
2023-04-15T07:17:06.800Z,5.77
2023-04-15T07:19:36.163Z,7.10
2023-04-15T07:22:05.333Z,5.90
2023-04-15T07:24:34.439Z,7.73
2023-04-15T07:27:06.352Z,6.43
2023-04-15T07:29:38.120Z,5.70
2023-04-15T07:32:08.937Z,6.63
2023-04-15T07:34:39.118Z,5.10
2023-04-15T07:37:07.785Z,6.27
2023-04-15T07:39:40.786Z,3.93
2023-04-15T07:42:09.845Z,5.83
2023-04-15T07:44:45.788Z,4.80
2023-04-15T07:47:27.272Z,4.20
2023-04-15T07:49:58.755Z,7.43
2023-04-15T07:52:29.953Z,3.87
2023-04-15T07:55:23.916Z,5.33
2023-04-15T07:58:06.638Z,5.93
2023-04-15T08:00:40.953Z,9.03
2023-04-15T08:03:12.665Z,7.80
2023-04-15T08:05:52.001Z,6.80
2023-04-15T08:08:48.477Z,6.57
2023-04-15T08:11:35.001Z,4.83
2023-04-15T08:14:08.905Z,5.20
2023-04-15T08:16:41.439Z,8.00
2023-04-15T08:19:09.480Z,4.63
2023-04-15T08:21:37.898Z,4.53
2023-04-15T08:24:07.064Z,8.17
2023-04-15T08:26:37.667Z,9.27
2023-04-15T08:29:11.848Z,5.63
2023-04-15T08:31:42.171Z,6.33
2023-04-15T08:34:11.150Z,4.13
2023-04-15T08:36:43.090Z,5.20
2023-04-15T08:39:12.479Z,4.57
2023-04-15T08:41:41.884Z,5.70
2023-04-15T08:44:11.977Z,4.63
2023-04-15T08:46:43.425Z,4.07
2023-04-15T08:49:16.216Z,6.30
2023-04-15T08:51:45.423Z,4.67
2023-04-15T08:54:19.623Z,4.10
2023-04-15T08:56:55.106Z,5.30
2023-04-15T08:59:23.935Z,6.17
2023-04-15T09:02:02.096Z,5.73
2023-04-15T09:04:43.609Z,6.57
2023-04-15T09:07:13.535Z,7.57
2023-04-15T09:09:50.209Z,3.43
2023-04-15T09:12:40.023Z,6.03
2023-04-15T09:15:12.778Z,5.47
2023-04-15T09:17:47.814Z,8.43
2023-04-15T09:20:20.153Z,5.20
2023-04-15T09:22:56.946Z,4.93
2023-04-15T09:25:29.652Z,3.65
2023-04-15T09:28:05.815Z,5.73
2023-04-15T09:30:50.877Z,4.15
2023-04-15T09:33:23.129Z,3.90
2023-04-15T09:36:03.017Z,4.22
2023-04-15T09:38:34.307Z,4.07
2023-04-15T09:41:04.446Z,3.28
2023-04-15T09:43:40.918Z,2.63
2023-04-15T09:46:14.941Z,5.72
2023-04-15T09:48:46.140Z,2.85
2023-04-15T09:51:16.193Z,5.18
2023-04-15T09:53:58.053Z,3.85
2023-04-15T09:56:33.778Z,4.18
2023-04-15T09:59:01.912Z,3.97
2023-04-15T10:01:38.685Z,5.68
2023-04-15T10:04:12.579Z,4.90
2023-04-15T10:06:41.901Z,3.58
2023-04-15T10:09:11.150Z,3.83
2023-04-15T10:11:40.813Z,5.25
2023-04-15T10:14:12.099Z,2.65
2023-04-15T10:16:46.543Z,2.97
2023-04-15T10:19:20.021Z,3.35
2023-04-15T10:21:49.565Z,5.80
2023-04-15T10:24:18.920Z,4.68
2023-04-15T10:26:48.405Z,3.67
2023-04-15T10:29:19.460Z,4.32
2023-04-15T10:31:49.269Z,2.72
2023-04-15T10:34:21.167Z,4.72
2023-04-15T10:36:52.372Z,4.38
2023-04-15T10:39:45.735Z,3.28
2023-04-15T10:42:16.366Z,3.85
2023-04-15T10:44:47.970Z,4.88
2023-04-15T10:47:20.270Z,4.88
2023-04-15T10:49:52.997Z,5.65
2023-04-15T10:52:26.193Z,4.72
2023-04-15T10:55:06.163Z,6.65
2023-04-15T10:57:46.417Z,3.92
2023-04-15T11:00:17.701Z,4.15
2023-04-15T11:02:51.400Z,6.97
2023-04-15T11:05:24.037Z,3.53
2023-04-15T11:07:57.053Z,7.53
2023-04-15T11:10:53.914Z,3.90
2023-04-15T11:13:25.891Z,4.07
2023-04-15T11:16:01.092Z,4.72
2023-04-15T11:18:36.078Z,3.78
2023-04-15T11:21:12.219Z,4.25
2023-04-15T11:23:44.348Z,5.13
2023-04-15T11:26:13.352Z,4.10
2023-04-15T11:28:43.292Z,7.95
2023-04-15T11:31:13.311Z,4.75
2023-04-15T11:33:55.105Z,4.10
2023-04-15T11:36:28.624Z,4.75
2023-04-15T11:39:00.215Z,4.38
2023-04-15T11:41:31.845Z,6.30
2023-04-15T11:44:00.866Z,6.32
2023-04-15T11:46:37.700Z,6.50
2023-04-15T11:49:27.514Z,5.40
2023-04-15T11:51:57.970Z,4.47
2023-04-15T11:54:28.203Z,5.53
2023-04-15T11:56:57.654Z,5.78
2023-04-15T11:59:30.229Z,3.00
2023-04-15T12:02:14.514Z,4.10
2023-04-15T12:04:54.679Z,3.97
2023-04-15T12:07:25.679Z,3.00
2023-04-15T12:09:56.821Z,3.38
2023-04-15T12:12:29.349Z,5.72
2023-04-15T12:15:08.890Z,3.75
2023-04-15T12:17:51.123Z,4.50
2023-04-15T12:20:28.065Z,5.87
2023-04-15T12:23:07.984Z,7.15
2023-04-15T12:25:37.634Z,4.28
2023-04-15T12:28:13.955Z,5.13
2023-04-15T12:30:51.703Z,6.28
2023-04-15T12:33:21.946Z,4.88
2023-04-15T12:35:52.662Z,5.18
2023-04-15T12:38:22.600Z,4.10
2023-04-15T12:40:50.507Z,3.92
2023-04-15T12:43:18.396Z,4.47
2023-04-15T12:45:46.795Z,5.83
2023-04-15T12:48:14.815Z,3.20
2023-04-15T12:50:42.762Z,5.43
2023-04-15T12:53:13.726Z,5.33
2023-04-15T12:55:43.818Z,3.50
2023-04-15T12:58:12.505Z,3.43
2023-04-15T13:00:40.727Z,3.70
2023-04-15T13:03:08.685Z,5.03
2023-04-15T13:05:39.242Z,4.37
2023-04-15T13:08:07.906Z,4.00
2023-04-15T13:10:38.123Z,3.07
2023-04-15T13:13:07.966Z,2.47
2023-04-15T13:15:36.447Z,2.83
2023-04-15T13:18:04.620Z,2.23
2023-04-15T13:20:32.481Z,7.53
2023-04-15T13:23:03.015Z,4.20
2023-04-15T13:25:32.964Z,4.47
2023-04-15T13:28:02.924Z,2.57
2023-04-15T13:30:33.836Z,2.40
2023-04-15T13:33:02.550Z,3.43
2023-04-15T13:35:31.212Z,1.40
2023-04-15T13:38:05.662Z,1.60
2023-04-15T13:40:41.522Z,1.53
2023-04-15T13:43:12.544Z,0.87
2023-04-15T13:45:43.594Z,1.73
2023-04-15T13:48:16.614Z,3.80
2023-04-15T13:50:45.653Z,1.53
2023-04-15T13:53:17.694Z,2.00
2023-04-15T13:55:46.340Z,2.57
2023-04-15T13:58:14.302Z,2.57
2023-04-15T14:00:43.696Z,1.83
2023-04-15T14:03:12.170Z,3.43
2023-04-15T14:05:40.694Z,2.30
2023-04-15T14:08:09.497Z,2.13
2023-04-15T14:10:38.586Z,3.07
2023-04-15T14:13:08.015Z,1.57
2023-04-15T14:15:36.848Z,1.40
2023-04-15T14:18:08.340Z,2.20
2023-04-15T14:20:37.312Z,2.03
2023-04-15T14:23:10.126Z,2.57
2023-04-15T14:25:43.598Z,1.33
2023-04-15T14:28:15.459Z,1.73
2023-04-15T14:30:43.989Z,8.87
2023-04-15T14:33:14.206Z,3.77
2023-04-15T14:35:42.082Z,7.73
2023-04-15T14:38:11.280Z,3.27
2023-04-15T14:40:39.827Z,1.67
2023-04-15T14:43:10.594Z,2.60
2023-04-15T14:45:46.699Z,3.90
2023-04-15T14:48:40.714Z,2.60
2023-04-15T14:51:28.041Z,2.47
2023-04-15T14:54:21.879Z,1.83
2023-04-15T14:56:55.979Z,1.47
2023-04-15T14:59:28.002Z,2.80
2023-04-15T15:01:56.908Z,2.33
2023-04-15T15:04:26.894Z,1.53
2023-04-15T15:06:55.917Z,2.13
2023-04-15T15:09:27.534Z,3.50
2023-04-15T15:11:57.034Z,2.57
2023-04-15T15:14:25.740Z,1.20
2023-04-15T15:16:54.074Z,2.47
2023-04-15T15:19:24.080Z,2.47
2023-04-15T15:21:55.100Z,1.83
2023-04-15T15:24:57.417Z,3.30
2023-04-15T15:27:46.704Z,3.63
2023-04-15T15:30:15.591Z,1.83
2023-04-15T15:32:45.037Z,2.90
2023-04-15T15:35:15.817Z,2.27
2023-04-15T15:37:47.022Z,2.90
2023-04-15T15:40:15.440Z,2.17
2023-04-15T15:42:43.298Z,2.23
2023-04-15T15:45:26.629Z,2.47
2023-04-15T15:47:57.094Z,2.30
2023-04-15T15:50:26.926Z,2.27
2023-04-15T15:52:58.573Z,2.07
2023-04-15T15:55:27.370Z,1.97
2023-04-15T15:58:03.460Z,1.93
2023-04-15T16:03:32.828Z,1.87
2023-04-15T16:06:02.265Z,1.77
2023-04-15T16:08:33.282Z,1.97
2023-04-15T16:11:03.776Z,1.80
2023-04-15T16:13:37.267Z,2.67
2023-04-15T16:16:12.545Z,2.37
2023-04-15T16:18:43.506Z,2.93
2023-04-15T16:21:11.511Z,4.23
2023-04-15T16:23:41.630Z,2.27
2023-04-15T16:26:10.574Z,6.50
2023-04-15T16:28:39.260Z,4.43
2023-04-15T16:31:07.656Z,3.93
2023-04-15T16:33:36.235Z,3.43
2023-04-15T16:36:07.960Z,3.30
2023-04-15T16:38:40.995Z,2.17
2023-04-15T16:41:09.679Z,3.13
2023-04-15T16:43:40.653Z,2.50
2023-04-15T16:46:08.941Z,2.33
2023-04-15T16:48:38.603Z,2.93
2023-04-15T16:51:07.932Z,3.00
2023-04-15T16:53:36.637Z,3.70
2023-04-15T16:56:08.469Z,2.93
2023-04-15T16:58:36.711Z,3.70
2023-04-15T17:01:04.632Z,3.00
2023-04-15T17:03:37.002Z,3.27
2023-04-15T17:06:05.484Z,3.13
2023-04-15T17:08:33.474Z,3.93
2023-04-15T17:11:01.950Z,2.67
2023-04-15T17:13:31.706Z,3.70
2023-04-15T17:15:59.655Z,3.30
2023-04-15T17:18:28.085Z,4.53
2023-04-15T17:20:56.498Z,4.40
2023-04-15T17:23:24.528Z,3.13
2023-04-15T17:25:53.410Z,4.47
2023-04-15T17:28:21.485Z,4.70
2023-04-15T17:30:51.042Z,3.93
2023-04-15T17:33:50.545Z,2.77
2023-04-15T17:36:08.768Z,3.17
2023-04-15T17:38:36.680Z,3.17
2023-04-15T17:41:08.021Z,4.60
2023-04-15T17:43:36.553Z,3.30
2023-04-15T17:46:08.017Z,3.13
2023-04-15T17:49:05.304Z,2.60
2023-04-15T17:51:33.789Z,2.20
2023-04-15T17:54:08.353Z,2.60
2023-04-15T17:56:37.158Z,3.00
2023-04-15T17:59:07.476Z,4.13
2023-04-15T18:01:37.262Z,2.97
2023-04-15T18:04:06.609Z,2.90
2023-04-15T18:06:36.837Z,2.40
2023-04-15T18:09:05.730Z,4.63
2023-04-15T18:11:34.467Z,3.37
2023-04-15T18:14:04.668Z,2.20
2023-04-15T18:16:33.332Z,1.77
2023-04-15T18:19:02.905Z,2.43
2023-04-15T18:21:31.456Z,1.30
2023-04-15T18:23:59.713Z,2.10
2023-04-15T18:26:29.252Z,1.30
2023-04-15T18:28:57.476Z,2.63
2023-04-15T18:31:25.509Z,2.10
2023-04-15T18:33:57.025Z,2.33
2023-04-15T18:36:27.530Z,2.47
2023-04-15T18:38:55.908Z,1.80
2023-04-15T18:41:25.399Z,1.70
2023-04-15T18:43:54.807Z,3.40
2023-04-15T18:46:22.922Z,1.73
2023-04-15T18:48:51.058Z,3.20
2023-04-15T18:51:19.720Z,2.40
2023-04-15T18:53:50.297Z,1.80
2023-04-15T18:56:19.289Z,2.03
2023-04-15T18:59:26.434Z,2.20
2023-04-15T19:01:42.862Z,2.23
2023-04-15T19:04:11.956Z,2.27
2023-04-15T19:06:41.746Z,2.60
2023-04-15T19:09:14.315Z,2.70
2023-04-15T19:11:43.785Z,2.70
2023-04-15T19:14:12.510Z,2.93
2023-04-15T19:16:42.811Z,3.40
2023-04-15T19:19:14.452Z,3.13
2023-04-15T19:21:42.919Z,3.43
2023-04-15T19:24:11.478Z,3.60
2023-04-15T19:26:41.214Z,4.47
2023-04-15T19:29:09.358Z,3.63
2023-04-15T19:31:37.810Z,4.00
2023-04-15T19:34:06.491Z,4.87
2023-04-15T19:36:34.963Z,4.37
2023-04-15T19:39:03.467Z,4.80
2023-04-15T19:41:31.874Z,4.17
2023-04-15T19:44:01.347Z,4.73
2023-04-15T19:46:32.412Z,5.60
2023-04-15T19:49:01.396Z,5.50
2023-04-15T19:51:29.941Z,5.83
2023-04-15T19:53:59.576Z,5.80
2023-04-15T19:56:27.662Z,5.57
2023-04-15T19:58:56.880Z,4.73
2023-04-15T20:01:27.240Z,5.97
2023-04-15T20:03:55.905Z,6.03
2023-04-15T20:06:24.159Z,5.73
2023-04-15T20:08:53.034Z,5.87
2023-04-15T20:11:22.263Z,6.10
2023-04-15T20:13:51.174Z,6.17
2023-04-15T20:16:19.648Z,5.30
2023-04-15T20:18:49.287Z,5.77
2023-04-15T20:21:19.963Z,5.07
2023-04-15T20:23:54.358Z,5.37
2023-04-15T20:26:29.915Z,6.70
2023-04-15T20:29:00.642Z,5.93
2023-04-15T20:31:29.202Z,6.50
2023-04-15T20:33:58.902Z,6.60
2023-04-15T20:36:27.683Z,5.83
2023-04-15T20:38:55.680Z,6.03
2023-04-15T20:41:23.973Z,6.50
2023-04-15T20:43:52.611Z,6.27
2023-04-15T20:46:21.777Z,6.87
2023-04-15T20:48:50.709Z,6.10
2023-04-15T20:51:24.889Z,7.17
2023-04-15T20:53:52.964Z,6.33
2023-04-15T20:56:21.376Z,5.97
2023-04-15T20:58:49.244Z,7.67
2023-04-15T21:01:17.276Z,7.53
2023-04-15T21:03:46.446Z,6.60
2023-04-15T21:06:15.140Z,7.93
2023-04-15T21:08:45.112Z,7.03
2023-04-15T21:11:18.903Z,7.97
2023-04-15T21:13:57.109Z,7.90
2023-04-15T21:16:25.327Z,7.87
2023-04-15T21:18:54.600Z,7.97
2023-04-15T21:21:23.112Z,8.30
2023-04-15T21:23:52.719Z,8.63
2023-04-15T21:26:21.056Z,8.03
2023-04-15T21:28:49.835Z,7.83
2023-04-15T21:31:18.296Z,8.03
2023-04-15T21:33:47.920Z,8.50
2023-04-15T21:36:16.153Z,8.80
2023-04-15T21:38:44.050Z,8.17
2023-04-15T21:41:13.523Z,8.17
2023-04-15T21:43:41.456Z,8.87
2023-04-15T21:46:22.294Z,8.13
2023-04-15T21:48:52.065Z,8.90
2023-04-15T21:51:20.119Z,9.37
2023-04-15T21:53:48.476Z,10.13
2023-04-15T21:56:17.741Z,10.23
2023-04-15T21:58:45.605Z,9.93
2023-04-15T22:01:14.326Z,9.40
2023-04-15T22:03:42.744Z,9.67
2023-04-15T22:06:11.248Z,10.23
2023-04-15T22:08:52.405Z,10.27
2023-04-15T22:11:28.220Z,10.50
2023-04-15T22:13:57.665Z,10.60
2023-04-15T22:16:26.291Z,11.63
2023-04-15T22:18:54.677Z,11.90
2023-04-15T22:21:22.767Z,11.47
2023-04-15T22:23:51.064Z,11.50
2023-04-15T22:26:19.196Z,13.27
2023-04-15T22:28:48.541Z,12.23
2023-04-15T22:31:16.497Z,12.87
2023-04-15T22:33:44.467Z,12.07
2023-04-15T22:36:13.652Z,11.37
2023-04-15T22:38:41.687Z,11.57
2023-04-15T22:41:10.439Z,11.37
2023-04-15T22:43:38.465Z,10.83
2023-04-15T22:46:07.999Z,9.83
2023-04-15T22:48:36.107Z,11.10
2023-04-15T22:51:04.836Z,10.90
2023-04-15T22:53:33.299Z,10.43
2023-04-15T22:56:02.724Z,11.90
2023-04-15T22:58:33.053Z,10.93
2023-04-15T23:01:01.264Z,11.17
2023-04-15T23:03:31.047Z,9.93
2023-04-15T23:05:59.042Z,11.40
2023-04-15T23:08:26.859Z,10.73
2023-04-15T23:10:54.731Z,11.20
2023-04-15T23:13:22.609Z,10.97
2023-04-15T23:15:50.696Z,10.70
2023-04-15T23:18:18.749Z,10.77
2023-04-15T23:20:48.351Z,9.53
2023-04-15T23:23:16.606Z,11.73
2023-04-15T23:25:44.777Z,9.90
2023-04-15T23:28:13.113Z,10.80
2023-04-15T23:30:41.228Z,11.33
2023-04-15T23:33:09.297Z,9.53
2023-04-15T23:35:37.877Z,11.93
2023-04-15T23:38:07.090Z,9.47
2023-04-15T23:40:35.030Z,10.87
2023-04-15T23:43:02.907Z,11.77
2023-04-15T23:45:30.928Z,12.13
2023-04-15T23:47:59.180Z,10.83
2023-04-15T23:50:28.171Z,11.53
2023-04-15T23:52:56.383Z,11.40
2023-04-15T23:55:25.964Z,10.70
2023-04-15T23:57:53.990Z,10.10
